Time;durP1;ratioP1;P1;durP2;ratioP2;P2;SDS_P1;SDS_P2;PMS_P1;PMS_P2;Temp;Humidity;BMP_temperature;BMP_pressure;BME280_temperature;BME280_humidity;BME280_pressure;Samples;Min_cycle;Max_cycle;Signal;HPM_P1;HPM_P2
2021/05/15 00:00:49;;;;;;;35.50;18.40;;;8.00;99.90;;;;;;4934163;29;20124;-85
2021/05/15 00:03:32;;;;;;;31.40;17.52;;;8.00;99.90;;;;;;4950194;29;20739;-84
2021/05/15 00:06:07;;;;;;;42.55;17.25;;;7.90;99.90;;;;;;4943189;29;20118;-84
2021/05/15 00:08:42;;;;;;;49.10;17.77;;;7.90;99.90;;;;;;4953460;29;20019;-84
2021/05/15 00:11:17;;;;;;;33.45;18.20;;;8.00;99.90;;;;;;4953125;28;20404;-84
2021/05/15 00:14:09;;;;;;;45.83;18.58;;;8.10;99.90;;;;;;4952627;29;20031;-84
2021/05/15 00:16:35;;;;;;;39.13;17.98;;;8.00;99.90;;;;;;4953352;28;20043;-84
2021/05/15 00:19:00;;;;;;;27.75;17.58;;;8.00;99.90;;;;;;4953263;29;20122;-84
2021/05/15 00:21:35;;;;;;;35.80;17.42;;;8.00;99.90;;;;;;4949100;28;20158;-84
2021/05/15 00:24:19;;;;;;;39.17;18.05;;;8.00;99.90;;;;;;4949291;29;20496;-84
2021/05/15 00:26:52;;;;;;;48.88;18.20;;;7.90;99.90;;;;;;4945321;29;20127;-85
2021/05/15 00:29:21;;;;;;;35.80;18.38;;;7.90;99.90;;;;;;4953054;29;20035;-85
2021/05/15 00:31:52;;;;;;;35.33;17.77;;;7.90;99.90;;;;;;4952639;28;20027;-84
2021/05/15 00:34:30;;;;;;;45.45;18.40;;;8.00;99.90;;;;;;4952804;29;20031;-85
2021/05/15 00:36:55;;;;;;;37.40;19.35;;;7.90;99.90;;;;;;4968142;28;20071;-84
2021/05/15 00:39:24;;;;;;;44.92;19.27;;;7.90;99.90;;;;;;4953897;29;20051;-85
2021/05/15 00:41:54;;;;;;;40.58;19.63;;;8.00;99.90;;;;;;4953870;28;20027;-84
2021/05/15 00:46:52;;;;;;;47.63;19.70;;;7.90;99.90;;;;;;4953924;28;20046;-84
2021/05/15 00:49:18;;;;;;;34.67;17.15;;;7.90;99.90;;;;;;4952776;28;20023;-84
2021/05/15 00:51:50;;;;;;;47.28;19.27;;;7.90;99.90;;;;;;4949322;28;20079;-85
2021/05/15 00:54:36;;;;;;;40.88;20.35;;;7.90;99.90;;;;;;4933070;29;20043;-84
2021/05/15 00:57:11;;;;;;;39.88;18.42;;;8.00;99.90;;;;;;4933421;29;20031;-84
2021/05/15 00:59:38;;;;;;;36.90;18.13;;;8.00;99.90;;;;;;4932252;29;20038;-84
2021/05/15 01:02:07;;;;;;;38.08;17.77;;;8.10;99.90;;;;;;4933361;29;20488;-84
2021/05/15 01:04:33;;;;;;;43.38;18.48;;;7.90;99.90;;;;;;4932781;29;20119;-85
2021/05/15 01:07:03;;;;;;;34.30;16.40;;;7.90;99.90;;;;;;4951824;29;20436;-85
2021/05/15 01:09:29;;;;;;;40.50;17.42;;;7.90;99.90;;;;;;4952237;29;20527;-85
2021/05/15 01:11:55;;;;;;;44.67;18.23;;;7.90;99.90;;;;;;4952605;28;20027;-85
2021/05/15 01:14:23;;;;;;;43.05;17.33;;;8.00;99.90;;;;;;4948373;29;20058;-85
2021/05/15 01:16:54;;;;;;;40.45;17.80;;;7.90;99.90;;;;;;4933298;29;20400;-85
2021/05/15 01:19:22;;;;;;;33.28;17.95;;;8.00;99.90;;;;;;4933238;29;20441;-85
2021/05/15 01:22:14;;;;;;;34.90;17.15;;;8.00;99.90;;;;;;4949955;29;20055;-85
2021/05/15 01:24:44;;;;;;;33.80;15.35;;;7.90;99.90;;;;;;4967725;28;20480;-85
2021/05/15 01:27:14;;;;;;;34.75;18.42;;;8.00;99.90;;;;;;4951942;29;20032;-84
2021/05/15 01:29:44;;;;;;;36.85;18.15;;;8.00;99.90;;;;;;4954272;28;20031;-85
2021/05/15 01:32:15;;;;;;;38.17;17.83;;;8.00;99.90;;;;;;4955885;28;20027;-84
2021/05/15 01:34:43;;;;;;;39.15;19.75;;;7.90;99.90;;;;;;4956922;28;20408;-85
2021/05/15 01:37:16;;;;;;;39.08;18.08;;;8.10;99.90;;;;;;4956655;28;20496;-85
2021/05/15 01:39:51;;;;;;;50.40;19.50;;;7.90;99.90;;;;;;4957192;29;20031;-84
2021/05/15 01:42:45;;;;;;;43.50;18.10;;;8.00;99.90;;;;;;4952206;28;20036;-85
2021/05/15 01:45:14;;;;;;;;;;;8.00;99.90;;;;;;4951468;28;20417;-85
2021/05/15 01:47:45;;;;;;;37.80;17.10;;;8.00;99.90;;;;;;4937045;29;20283;-85
2021/05/15 01:50:21;;;;;;;43.03;17.92;;;8.10;99.90;;;;;;4941239;29;20106;-85
2021/05/15 01:53:03;;;;;;;42.63;17.17;;;8.00;99.90;;;;;;4955527;28;20027;-85
2021/05/15 01:55:34;;;;;;;36.88;17.42;;;8.00;99.90;;;;;;4954845;29;20058;-85
2021/05/15 01:58:23;;;;;;;37.22;15.85;;;7.90;99.90;;;;;;4955343;29;20036;-85
2021/05/15 02:00:53;;;;;;;34.85;18.38;;;8.00;99.90;;;;;;4956337;29;20042;-85
2021/05/15 02:03:29;;;;;;;43.40;17.80;;;8.00;99.90;;;;;;4956952;28;20015;-85
2021/05/15 02:06:07;;;;;;;29.30;15.82;;;7.90;99.90;;;;;;4955961;29;20027;-86
2021/05/15 02:08:50;;;;;;;38.42;16.98;;;7.90;99.90;;;;;;4955692;29;20460;-85
2021/05/15 02:11:18;;;;;;;37.75;16.00;;;8.00;99.90;;;;;;4951908;28;20043;-85
2021/05/15 02:13:47;;;;;;;29.08;15.45;;;8.00;99.90;;;;;;4951528;29;20035;-85
2021/05/15 02:16:23;;;;;;;30.42;14.57;;;7.80;99.90;;;;;;4952128;29;20042;-85
2021/05/15 02:18:55;;;;;;;26.40;13.27;;;8.00;99.90;;;;;;4937081;29;20039;-84
2021/05/15 02:21:25;;;;;;;21.20;10.68;;;8.00;99.90;;;;;;4951807;28;20038;-85
2021/05/15 02:23:51;;;;;;;14.55;9.48;;;7.90;99.90;;;;;;4956003;29;20098;-85
2021/05/15 02:26:21;;;;;;;18.33;9.23;;;8.00;99.90;;;;;;4955087;29;20118;-85
2021/05/15 02:28:47;;;;;;;11.43;6.88;;;7.80;99.90;;;;;;4955123;29;20024;-85
2021/05/15 02:31:13;;;;;;;14.98;7.70;;;7.90;99.90;;;;;;4953279;29;20031;-84
2021/05/15 02:33:39;;;;;;;15.52;8.77;;;7.90;99.90;;;;;;4954055;29;20660;-85
2021/05/15 02:36:32;;;;;;;22.45;8.95;;;7.90;99.90;;;;;;4954531;28;20035;-86
2021/05/15 02:39:01;;;;;;;19.27;8.33;;;7.90;99.90;;;;;;4954911;28;20027;-86
2021/05/15 02:41:29;;;;;;;16.45;8.30;;;7.90;99.90;;;;;;4954188;28;20027;-86
2021/05/15 02:44:06;;;;;;;14.55;7.25;;;8.00;99.90;;;;;;4955430;28;20031;-86
2021/05/15 02:46:32;;;;;;;17.88;8.35;;;7.80;99.90;;;;;;4956120;29;20031;-85
2021/05/15 02:48:58;;;;;;;11.93;8.18;;;7.90;99.90;;;;;;4954735;28;20027;-85
2021/05/15 02:51:26;;;;;;;19.83;9.40;;;7.90;99.90;;;;;;4951019;28;20044;-86
2021/05/15 02:53:53;;;;;;;14.65;8.65;;;7.90;99.90;;;;;;4950950;29;20055;-86
2021/05/15 02:56:24;;;;;;;14.57;9.88;;;7.90;99.90;;;;;;4936981;29;20127;-86
2021/05/15 02:58:52;;;;;;;15.77;9.60;;;7.80;99.90;;;;;;4937668;29;20559;-86
2021/05/15 03:01:23;;;;;;;17.30;10.60;;;7.90;99.90;;;;;;4945851;29;20039;-85
2021/05/15 03:03:51;;;;;;;25.02;11.65;;;7.90;99.90;;;;;;4954093;28;20024;-86
2021/05/15 03:06:17;;;;;;;23.88;10.80;;;8.00;99.90;;;;;;4955383;28;20027;-86
2021/05/15 03:08:54;;;;;;;18.48;10.52;;;7.90;99.90;;;;;;4954580;29;20436;-86
2021/05/15 03:11:26;;;;;;;18.95;9.77;;;7.90;99.90;;;;;;4955403;28;20093;-85
2021/05/15 03:14:08;;;;;;;21.85;11.02;;;7.90;99.90;;;;;;4953823;29;20035;-86
2021/05/15 03:16:38;;;;;;;23.80;10.80;;;7.80;99.90;;;;;;4955861;29;20480;-86
2021/05/15 03:19:05;;;;;;;19.58;10.48;;;7.90;99.90;;;;;;4954519;29;20484;-85
2021/05/15 03:21:51;;;;;;;19.60;10.25;;;8.10;99.90;;;;;;4954733;29;20063;-86
2021/05/15 03:24:25;;;;;;;22.58;10.65;;;7.80;99.90;;;;;;4953854;29;20370;-86
2021/05/15 03:26:53;;;;;;;27.90;12.63;;;7.90;99.90;;;;;;4953865;29;20058;-86
2021/05/15 03:29:26;;;;;;;25.65;11.32;;;7.90;99.90;;;;;;4955488;29;20035;-86
2021/05/15 03:31:54;;;;;;;17.73;12.38;;;7.90;99.90;;;;;;4952570;29;20480;-86
2021/05/15 03:34:26;;;;;;;21.75;12.23;;;8.00;99.90;;;;;;4954847;29;20082;-84
2021/05/15 03:36:56;;;;;;;20.05;11.98;;;7.90;99.90;;;;;;4953942;28;20119;-85
2021/05/15 03:39:27;;;;;;;21.83;11.65;;;7.90;99.90;;;;;;4954122;29;20062;-86
2021/05/15 03:41:53;;;;;;;26.52;12.43;;;7.90;99.90;;;;;;4955063;28;20027;-86
2021/05/15 03:44:34;;;;;;;20.98;10.95;;;7.90;99.90;;;;;;4954988;28;20093;-86
2021/05/15 03:47:00;;;;;;;24.38;10.38;;;7.90;99.90;;;;;;4955153;29;20388;-86
2021/05/15 03:49:32;;;;;;;19.13;8.75;;;7.80;99.90;;;;;;4953842;28;20028;-86
2021/05/15 03:52:06;;;;;;;15.88;7.80;;;7.90;99.90;;;;;;4953696;28;20037;-86
2021/05/15 03:54:43;;;;;;;17.00;9.00;;;7.90;99.90;;;;;;4954521;28;20024;-86
2021/05/15 03:57:15;;;;;;;14.10;7.97;;;8.00;99.90;;;;;;4953725;29;20535;-86
2021/05/15 03:59:46;;;;;;;16.52;7.75;;;7.90;99.90;;;;;;4954774;29;20110;-86
2021/05/15 04:02:12;;;;;;;17.05;8.75;;;8.00;99.90;;;;;;4952574;28;20043;-86
2021/05/15 04:04:43;;;;;;;14.18;8.65;;;7.90;99.90;;;;;;4953112;29;20033;-86
2021/05/15 04:07:23;;;;;;;18.08;8.55;;;7.90;99.90;;;;;;4948459;29;20053;-86
2021/05/15 04:09:52;;;;;;;17.80;8.77;;;7.90;99.90;;;;;;4950344;29;20024;-86
2021/05/15 04:12:20;;;;;;;18.88;9.52;;;8.00;99.90;;;;;;4950015;28;20031;-86
2021/05/15 04:17:36;;;;;;;16.45;9.05;;;8.00;99.90;;;;;;4955003;28;20042;-86
2021/05/15 04:20:06;;;;;;;15.15;8.25;;;8.00;99.90;;;;;;4953016;29;20455;-86
2021/05/15 04:22:34;;;;;;;18.88;10.40;;;7.90;99.90;;;;;;4954245;28;20086;-86
2021/05/15 04:25:05;;;;;;;15.70;9.48;;;8.00;99.90;;;;;;4953810;28;20058;-86
2021/05/15 04:27:35;;;;;;;18.88;11.00;;;8.00;99.90;;;;;;4954788;28;20369;-85
2021/05/15 04:30:05;;;;;;;18.63;10.05;;;8.00;99.90;;;;;;4952931;28;20071;-86
2021/05/15 04:32:51;;;;;;;19.90;10.80;;;8.00;99.90;;;;;;4952196;29;20035;-85
2021/05/15 04:35:25;;;;;;;17.20;10.82;;;8.00;99.90;;;;;;4952394;29;20027;-86
2021/05/15 04:38:03;;;;;;;18.13;11.43;;;8.00;99.90;;;;;;4952746;29;20031;-86
2021/05/15 04:40:37;;;;;;;25.45;11.70;;;8.00;99.90;;;;;;4953042;29;20046;-85
2021/05/15 04:43:03;;;;;;;24.08;11.00;;;8.10;99.90;;;;;;4933733;29;20031;-85
2021/05/15 04:45:31;;;;;;;19.05;11.88;;;8.00;99.90;;;;;;4933256;29;20070;-87
2021/05/15 04:48:09;;;;;;;21.90;10.70;;;7.90;99.90;;;;;;4933588;29;20027;-85
2021/05/15 04:50:38;;;;;;;17.80;11.38;;;8.00;99.90;;;;;;4939698;28;20491;-86
2021/05/15 04:53:05;;;;;;;22.73;11.23;;;8.10;99.90;;;;;;4952812;28;20532;-87
2021/05/15 04:55:36;;;;;;;20.00;11.38;;;8.00;99.90;;;;;;4951834;28;20035;-85
2021/05/15 04:58:07;;;;;;;22.48;11.48;;;8.00;99.90;;;;;;4951672;29;20035;-86
2021/05/15 05:00:38;;;;;;;20.65;11.07;;;8.00;99.90;;;;;;4952410;28;20035;-86
2021/05/15 05:03:07;;;;;;;23.65;11.25;;;8.10;99.90;;;;;;4952319;28;20542;-86
2021/05/15 05:05:35;;;;;;;23.58;11.65;;;8.10;99.90;;;;;;4952014;28;20609;-85
2021/05/15 05:08:17;;;;;;;26.75;13.27;;;8.10;99.90;;;;;;4952623;28;20023;-85
2021/05/15 05:10:48;;;;;;;20.15;11.07;;;8.10;99.90;;;;;;4953336;28;20106;-86
2021/05/15 05:13:16;;;;;;;17.95;10.88;;;8.10;99.90;;;;;;4952582;29;20047;-86
2021/05/15 05:15:56;;;;;;;18.83;11.48;;;8.10;99.90;;;;;;4953488;29;20126;-86
2021/05/15 05:18:27;;;;;;;25.90;12.98;;;8.10;99.90;;;;;;4953766;29;20116;-86
2021/05/15 05:20:58;;;;;;;20.23;12.57;;;8.00;99.90;;;;;;4953376;29;20090;-85
2021/05/15 05:23:30;;;;;;;19.80;12.20;;;8.10;99.90;;;;;;4952547;29;20034;-86
2021/05/15 05:26:00;;;;;;;20.45;11.32;;;8.20;99.90;;;;;;4951944;28;20035;-86
2021/05/15 05:28:35;;;;;;;17.63;11.80;;;8.10;99.90;;;;;;4952506;29;20019;-86
2021/05/15 05:31:09;;;;;;;20.30;11.05;;;8.10;99.90;;;;;;4948736;28;20492;-86
2021/05/15 05:33:45;;;;;;;18.60;9.20;;;8.10;99.90;;;;;;4949226;29;20061;-86
2021/05/15 05:36:17;;;;;;;19.25;10.73;;;8.00;99.90;;;;;;4952250;28;20047;-86
2021/05/15 05:38:57;;;;;;;29.08;11.40;;;8.10;99.90;;;;;;4953579;29;20050;-86
2021/05/15 05:41:25;;;;;;;26.10;12.27;;;8.10;99.90;;;;;;4953153;28;20391;-86
2021/05/15 05:43:56;;;;;;;23.58;12.50;;;8.20;99.90;;;;;;4951635;29;20110;-86
2021/05/15 05:46:24;;;;;;;23.38;12.27;;;8.20;99.90;;;;;;4953608;29;20024;-86
2021/05/15 05:48:55;;;;;;;21.38;12.02;;;8.00;99.90;;;;;;4953487;29;20391;-86
2021/05/15 05:51:26;;;;;;;16.50;10.32;;;8.20;99.90;;;;;;4948878;28;20028;-86
2021/05/15 05:53:56;;;;;;;21.58;11.43;;;8.30;99.90;;;;;;4934003;29;20064;-86
2021/05/15 05:56:24;;;;;;;17.00;11.13;;;8.20;99.90;;;;;;4948722;29;20035;-86
2021/05/15 05:58:56;;;;;;;18.95;11.07;;;8.20;99.90;;;;;;4933214;29;20059;-86
2021/05/15 06:01:36;;;;;;;17.50;11.05;;;8.30;99.90;;;;;;4936406;28;20039;-86
2021/05/15 06:04:02;;;;;;;19.33;10.77;;;8.10;99.90;;;;;;4933657;29;20039;-86
2021/05/15 06:06:33;;;;;;;24.88;13.05;;;8.20;99.90;;;;;;4942540;29;20028;-86
2021/05/15 06:09:04;;;;;;;20.63;10.60;;;8.20;99.90;;;;;;4934093;29;20052;-87
2021/05/15 06:11:38;;;;;;;19.70;11.05;;;8.30;99.90;;;;;;4940397;29;20377;-86
2021/05/15 06:14:19;;;;;;;23.30;12.13;;;8.20;99.90;;;;;;4951303;28;20399;-86
2021/05/15 06:16:48;;;;;;;19.63;11.07;;;8.20;99.90;;;;;;4955770;28;20039;-86
2021/05/15 06:19:17;;;;;;;21.15;11.13;;;8.30;99.90;;;;;;4955583;28;20063;-86
2021/05/15 06:21:54;;;;;;;15.73;9.90;;;8.30;99.90;;;;;;4954825;28;20035;-86
2021/05/15 06:24:28;;;;;;;19.30;10.55;;;8.30;99.90;;;;;;4955064;28;20062;-86
2021/05/15 06:27:07;;;;;;;23.20;10.27;;;8.30;99.90;;;;;;4955406;28;20019;-86
2021/05/15 06:29:36;;;;;;;22.00;8.05;;;8.40;99.90;;;;;;4955418;29;20031;-86
2021/05/15 06:32:02;;;;;;;17.25;8.90;;;8.30;99.90;;;;;;4956035;28;20033;-86
2021/05/15 06:34:30;;;;;;;14.00;7.35;;;8.30;99.90;;;;;;4954698;29;20110;-86
2021/05/15 06:36:56;;;;;;;10.27;6.38;;;8.30;99.90;;;;;;4955576;28;20400;-86
2021/05/15 06:39:39;;;;;;;12.65;6.45;;;8.40;99.90;;;;;;4956333;28;20028;-85
2021/05/15 06:42:16;;;;;;;;;;;;;;;;;;;;;
2021/05/15 06:44:45;;;;;;;16.30;6.88;;;8.40;99.90;;;;;;4936584;29;20028;-87
2021/05/15 06:47:17;;;;;;;20.10;9.05;;;8.40;99.90;;;;;;4952128;28;20020;-86
2021/05/15 06:49:45;;;;;;;13.10;8.70;;;8.30;99.90;;;;;;4937074;29;20016;-86
2021/05/15 06:52:17;;;;;;;26.92;9.95;;;8.40;99.90;;;;;;4955504;28;20035;-86
2021/05/15 06:54:53;;;;;;;16.60;9.00;;;8.40;99.90;;;;;;4954524;29;20118;-87
2021/05/15 06:57:30;;;;;;;20.77;10.48;;;8.40;99.90;;;;;;4955929;28;20032;-86
2021/05/15 07:00:11;;;;;;;17.27;8.50;;;8.40;99.90;;;;;;4956135;29;20044;-87
2021/05/15 07:02:39;;;;;;;19.45;9.00;;;8.40;99.90;;;;;;4955714;28;20035;-86
2021/05/15 07:05:14;;;;;;;15.43;8.75;;;8.40;99.90;;;;;;4953987;29;20038;-88
2021/05/15 07:08:10;;;;;;;20.55;9.35;;;8.40;99.90;;;;;;4954598;29;20082;-87
2021/05/15 07:10:45;;;;;;;20.77;9.25;;;8.40;99.90;;;;;;4956020;28;20019;-87
2021/05/15 07:13:16;;;;;;;15.55;8.85;;;8.40;99.90;;;;;;4956153;29;20113;-86
2021/05/15 07:15:51;;;;;;;12.10;8.57;;;8.40;99.90;;;;;;4954141;29;20492;-86
2021/05/15 07:18:19;;;;;;;16.05;9.52;;;8.40;99.90;;;;;;4970787;28;20044;-87
2021/05/15 07:20:46;;;;;;;21.75;9.45;;;8.30;99.90;;;;;;4955497;28;20042;-88
2021/05/15 07:23:11;;;;;;;15.75;9.05;;;8.40;99.90;;;;;;4954486;29;20034;-88
2021/05/15 07:25:49;;;;;;;15.52;9.02;;;8.40;99.90;;;;;;4954877;28;20024;-87
2021/05/15 07:28:22;;;;;;;11.52;7.90;;;8.50;99.90;;;;;;4955342;29;20050;-88
2021/05/15 07:30:50;;;;;;;13.30;7.95;;;8.60;99.90;;;;;;4951047;29;20042;-86
2021/05/15 07:33:21;;;;;;;14.93;8.30;;;8.50;99.90;;;;;;4936309;29;20118;-86
2021/05/15 07:35:56;;;;;;;12.18;8.75;;;8.60;99.90;;;;;;4953423;29;20050;-86
2021/05/15 07:38:22;;;;;;;10.07;6.13;;;8.70;99.90;;;;;;4952997;29;20047;-86
2021/05/15 07:40:52;;;;;;;14.23;7.28;;;8.80;99.90;;;;;;4954896;28;20074;-86
2021/05/15 07:43:26;;;;;;;9.25;5.55;;;8.80;99.90;;;;;;4953577;28;20500;-85
2021/05/15 07:45:59;;;;;;;6.70;5.45;;;8.90;99.90;;;;;;4953983;29;20031;-86
2021/05/15 07:48:41;;;;;;;6.85;5.47;;;8.80;99.90;;;;;;4955089;28;20024;-86
2021/05/15 07:51:22;;;;;;;;;;;;;;;;;;;;;
2021/05/15 07:53:59;;;;;;;10.90;5.97;;;9.00;99.90;;;;;;4935376;29;20016;-85
2021/05/15 07:56:28;;;;;;;10.80;6.25;;;9.10;99.90;;;;;;4936019;29;20107;-86
2021/05/15 07:59:12;;;;;;;7.53;5.00;;;9.00;99.90;;;;;;4950356;28;20036;-86
2021/05/15 08:01:43;;;;;;;11.27;6.18;;;9.00;99.90;;;;;;4962151;28;20039;-86
2021/05/15 08:04:11;;;;;;;9.82;6.32;;;9.00;99.90;;;;;;4952908;29;20038;-86
2021/05/15 08:06:43;;;;;;;12.93;6.90;;;9.10;99.90;;;;;;4950303;28;20039;-86
2021/05/15 08:09:20;;;;;;;19.75;6.53;;;9.20;99.90;;;;;;4936166;29;20028;-86
2021/05/15 08:11:49;;;;;;;12.25;6.82;;;9.30;99.90;;;;;;4950026;28;20062;-86
2021/05/15 08:14:23;;;;;;;13.25;5.70;;;9.20;99.90;;;;;;4949745;29;20087;-86
2021/05/15 08:16:52;;;;;;;11.10;6.57;;;9.20;99.90;;;;;;4935557;29;20024;-86
2021/05/15 08:19:18;;;;;;;16.02;6.93;;;9.30;99.90;;;;;;4950018;29;20523;-86
2021/05/15 08:21:54;;;;;;;9.68;7.10;;;9.20;99.90;;;;;;4949707;29;20032;-86
2021/05/15 08:24:23;;;;;;;13.88;7.18;;;9.10;99.90;;;;;;4935026;29;20496;-86
2021/05/15 08:27:01;;;;;;;14.10;7.22;;;9.10;99.90;;;;;;4935041;29;20378;-86
2021/05/15 08:29:44;;;;;;;22.17;7.40;;;9.30;99.90;;;;;;4950202;28;20087;-86
2021/05/15 08:32:12;;;;;;;16.63;6.55;;;9.40;99.90;;;;;;4949298;28;20028;-86
2021/05/15 08:34:38;;;;;;;13.27;6.78;;;9.40;99.90;;;;;;4949415;28;20408;-85
2021/05/15 08:37:06;;;;;;;10.05;6.55;;;9.70;99.90;;;;;;4952497;28;20035;-85
2021/05/15 08:39:41;;;;;;;15.43;7.00;;;9.70;99.90;;;;;;4953850;29;20033;-84
2021/05/15 08:42:21;;;;;;;12.65;6.90;;;9.80;99.90;;;;;;4953435;28;20033;-85
2021/05/15 08:44:49;;;;;;;11.90;6.68;;;9.70;99.90;;;;;;4952686;29;20101;-85
2021/05/15 08:47:22;;;;;;;10.60;6.38;;;9.70;99.90;;;;;;4952909;28;20035;-85
2021/05/15 08:49:52;;;;;;;12.07;6.87;;;9.80;99.90;;;;;;4954322;28;20102;-86
2021/05/15 08:52:19;;;;;;;10.63;6.00;;;9.60;99.90;;;;;;4967127;28;20031;-86
2021/05/15 08:54:56;;;;;;;9.43;5.57;;;9.80;99.90;;;;;;4953300;29;20646;-86
2021/05/15 08:57:24;;;;;;;15.00;5.95;;;9.80;99.90;;;;;;4953970;29;20035;-86
2021/05/15 08:59:52;;;;;;;8.57;6.88;;;9.80;99.90;;;;;;4952769;29;20027;-85
2021/05/15 09:02:23;;;;;;;15.65;6.60;;;9.90;99.90;;;;;;4967575;28;20028;-85
2021/05/15 09:04:55;;;;;;;9.95;5.88;;;10.00;99.90;;;;;;4952044;29;20055;-86
2021/05/15 09:07:20;;;;;;;14.55;7.10;;;10.10;99.90;;;;;;4953922;29;20506;-85
2021/05/15 09:09:58;;;;;;;11.23;5.60;;;10.30;99.90;;;;;;4951979;29;20126;-84
2021/05/15 09:12:31;;;;;;;14.70;6.78;;;10.10;99.90;;;;;;4953301;28;20033;-85
2021/05/15 09:15:04;;;;;;;12.07;7.07;;;10.20;99.90;;;;;;4952881;28;20094;-84
2021/05/15 09:17:48;;;;;;;11.93;6.90;;;10.30;99.90;;;;;;4953495;28;20031;-84
2021/05/15 09:20:37;;;;;;;14.52;6.50;;;10.20;99.90;;;;;;4967245;28;20041;-84
2021/05/15 09:23:25;;;;;;;13.88;6.75;;;10.20;99.90;;;;;;4943061;29;20382;-84
2021/05/15 09:26:21;;;;;;;11.15;5.90;;;10.20;99.90;;;;;;4949065;29;20118;-83
2021/05/15 09:28:52;;;;;;;13.25;6.15;;;10.10;99.90;;;;;;4944865;28;20028;-84
2021/05/15 09:31:31;;;;;;;8.15;6.15;;;10.10;99.90;;;;;;4954717;28;20031;-82
2021/05/15 09:34:07;;;;;;;12.18;7.53;;;10.00;99.90;;;;;;4949848;28;20024;-82
2021/05/15 09:36:42;;;;;;;12.52;7.13;;;10.00;99.90;;;;;;4948471;29;20032;-84
2021/05/15 09:39:21;;;;;;;16.75;6.45;;;10.10;99.90;;;;;;4950316;28;20050;-83
2021/05/15 09:41:52;;;;;;;13.07;6.15;;;10.40;99.90;;;;;;4940979;28;20399;-82
2021/05/15 09:44:26;;;;;;;13.85;8.27;;;10.30;99.90;;;;;;4942436;29;20099;-83
2021/05/15 09:46:53;;;;;;;10.50;6.82;;;10.30;99.90;;;;;;4948708;28;20031;-84
2021/05/15 09:49:22;;;;;;;14.18;6.38;;;10.30;99.90;;;;;;4950107;28;20035;-83
2021/05/15 09:52:05;;;;;;;14.93;6.43;;;10.40;99.90;;;;;;4968659;28;20133;-83
2021/05/15 09:54:36;;;;;;;121.95;69.57;;;10.40;99.90;;;;;;4951840;29;20043;-82
2021/05/15 09:57:11;;;;;;;13.57;6.82;;;10.70;99.90;;;;;;4951908;28;20027;-83
2021/05/15 09:59:44;;;;;;;61.67;24.30;;;11.00;99.90;;;;;;4953943;28;20396;-82
2021/05/15 10:02:16;;;;;;;13.13;6.25;;;10.80;99.90;;;;;;4952050;29;20559;-84
2021/05/15 10:04:43;;;;;;;12.63;6.65;;;10.60;99.90;;;;;;4952388;29;20039;-82
2021/05/15 10:07:16;;;;;;;10.38;6.43;;;10.60;99.90;;;;;;4950737;28;20027;-82
2021/05/15 10:09:41;;;;;;;9.45;6.05;;;10.70;99.90;;;;;;4952544;29;20487;-84
2021/05/15 10:12:07;;;;;;;11.70;7.45;;;10.80;99.90;;;;;;4951111;28;20027;-83
2021/05/15 10:14:43;;;;;;;13.18;6.72;;;10.60;99.90;;;;;;4968340;28;20070;-83
2021/05/15 10:17:08;;;;;;;8.50;5.95;;;10.70;99.90;;;;;;4950972;29;20110;-80
2021/05/15 10:19:34;;;;;;;26.42;11.70;;;10.70;99.90;;;;;;4953129;29;20110;-77
2021/05/15 10:22:00;;;;;;;10.10;5.35;;;10.70;99.90;;;;;;4953896;28;20054;-77
2021/05/15 10:24:32;;;;;;;48.65;15.35;;;10.80;99.90;;;;;;4951435;29;20514;-77
2021/05/15 10:27:06;;;;;;;11.77;5.88;;;10.80;99.90;;;;;;4953549;28;20030;-76
2021/05/15 10:29:42;;;;;;;6.68;5.25;;;10.80;99.90;;;;;;4952444;29;20059;-78
2021/05/15 10:32:20;;;;;;;8.60;5.85;;;11.10;99.90;;;;;;4968802;28;20035;-77
2021/05/15 10:34:47;;;;;;;12.20;6.72;;;11.40;99.90;;;;;;4957605;28;20031;-77
2021/05/15 10:37:18;;;;;;;6.20;5.07;;;11.70;99.90;;;;;;4952536;29;20039;-77
2021/05/15 10:39:45;;;;;;;17.73;5.72;;;11.70;99.90;;;;;;4953123;28;20032;-77
2021/05/15 10:42:12;;;;;;;25.33;9.32;;;11.80;99.90;;;;;;4952466;28;20028;-77
2021/05/15 10:44:47;;;;;;;13.55;7.22;;;11.90;99.90;;;;;;4949645;29;20027;-76
2021/05/15 10:47:13;;;;;;;70.80;40.97;;;12.00;99.90;;;;;;4945425;29;20032;-78
2021/05/15 10:49:39;;;;;;;13.48;9.30;;;12.20;99.90;;;;;;4953215;28;20507;-75
2021/05/15 10:52:11;;;;;;;40.53;29.45;;;12.20;99.90;;;;;;4949995;28;20110;-76
2021/05/15 10:54:39;;;;;;;13.40;8.05;;;12.10;99.90;;;;;;4951060;29;20646;-77
2021/05/15 10:57:06;;;;;;;8.15;5.28;;;12.10;99.90;;;;;;4949755;29;20536;-77
2021/05/15 10:59:32;;;;;;;10.45;6.40;;;11.90;99.90;;;;;;4951719;28;20031;-76
2021/05/15 11:02:00;;;;;;;14.95;8.20;;;11.90;99.90;;;;;;4944071;29;20079;-76
2021/05/15 11:04:31;;;;;;;11.45;5.28;;;11.80;99.90;;;;;;4952463;29;20023;-76
2021/05/15 11:07:08;;;;;;;11.88;6.38;;;11.80;99.90;;;;;;4952860;29;20023;-77
2021/05/15 11:09:39;;;;;;;7.60;5.82;;;11.80;99.90;;;;;;4952366;29;20027;-76
2021/05/15 11:12:10;;;;;;;72.68;29.35;;;11.70;99.90;;;;;;4951512;29;20035;-76
2021/05/15 11:14:39;;;;;;;9.82;5.13;;;11.60;99.90;;;;;;4951361;28;20150;-76
2021/05/15 11:17:12;;;;;;;12.35;6.32;;;11.80;99.90;;;;;;4950281;29;20110;-77
2021/05/15 11:19:40;;;;;;;69.55;22.15;;;11.80;99.90;;;;;;4950832;29;20035;-77
2021/05/15 11:22:05;;;;;;;29.10;10.50;;;11.90;99.90;;;;;;4951164;28;20113;-77
2021/05/15 11:24:35;;;;;;;13.27;6.47;;;11.80;99.90;;;;;;4966755;28;20884;-77
2021/05/15 11:27:13;;;;;;;13.93;8.00;;;11.80;99.90;;;;;;4951336;29;20114;-77
2021/05/15 11:29:38;;;;;;;12.32;7.25;;;11.70;99.90;;;;;;4950622;28;20027;-76
2021/05/15 11:32:22;;;;;;;11.27;6.30;;;12.00;99.90;;;;;;4951066;28;20037;-77
2021/05/15 11:34:48;;;;;;;15.57;7.65;;;12.40;99.90;;;;;;4950179;29;20484;-76
2021/05/15 11:37:14;;;;;;;14.40;6.55;;;12.70;99.90;;;;;;4966589;28;20039;-77
2021/05/15 11:39:42;;;;;;;15.75;7.28;;;12.80;99.90;;;;;;4950321;28;20066;-77
2021/05/15 11:42:13;;;;;;;12.73;6.82;;;12.80;99.90;;;;;;4950886;28;20126;-77
2021/05/15 11:44:42;;;;;;;9.80;6.00;;;13.00;99.90;;;;;;4951638;29;20499;-77
2021/05/15 11:47:10;;;;;;;18.45;6.18;;;12.80;99.90;;;;;;4951978;28;20035;-78
2021/05/15 11:49:38;;;;;;;9.35;6.18;;;12.90;99.90;;;;;;4966102;28;20027;-78
2021/05/15 11:52:07;;;;;;;10.23;5.35;;;12.60;99.90;;;;;;4952382;28;20050;-78
2021/05/15 11:54:42;;;;;;;9.65;6.18;;;12.40;99.90;;;;;;4951002;29;20042;-78
2021/05/15 11:57:12;;;;;;;10.13;6.60;;;12.50;99.90;;;;;;4951404;28;20035;-76
2021/05/15 11:59:38;;;;;;;10.02;6.38;;;12.80;99.90;;;;;;4954531;29;20787;-77
2021/05/15 12:02:04;;;;;;;12.50;5.75;;;12.80;99.90;;;;;;4953062;28;20035;-77
2021/05/15 12:04:30;;;;;;;6.85;5.43;;;12.70;99.90;;;;;;4949288;29;20070;-76
2021/05/15 12:07:03;;;;;;;8.90;5.85;;;12.60;99.90;;;;;;4950387;28;20023;-76
2021/05/15 12:09:29;;;;;;;7.97;5.93;;;12.60;99.90;;;;;;4954467;28;20019;-77
2021/05/15 12:12:00;;;;;;;9.13;5.32;;;12.70;99.90;;;;;;4953827;28;20039;-77
2021/05/15 12:14:27;;;;;;;10.45;6.93;;;12.70;99.90;;;;;;4934782;29;20032;-77
2021/05/15 12:16:54;;;;;;;10.70;7.03;;;12.60;99.90;;;;;;4935595;29;20039;-76
2021/05/15 12:19:29;;;;;;;9.48;5.65;;;12.60;99.90;;;;;;4935546;29;20028;-77
2021/05/15 12:22:15;;;;;;;8.15;5.95;;;12.70;99.90;;;;;;4939718;29;20032;-77
2021/05/15 12:24:42;;;;;;;16.13;8.48;;;12.70;99.90;;;;;;4953530;29;20554;-77
2021/05/15 12:27:18;;;;;;;9.05;6.55;;;12.90;99.90;;;;;;4952971;29;20054;-77
2021/05/15 12:29:44;;;;;;;15.73;6.78;;;13.00;99.90;;;;;;4950113;29;20417;-77
2021/05/15 12:32:10;;;;;;;8.18;5.40;;;13.00;99.90;;;;;;4938949;29;20027;-77
2021/05/15 12:34:37;;;;;;;9.38;5.38;;;12.90;99.90;;;;;;4952980;28;20134;-77
2021/05/15 12:37:23;;;;;;;10.95;5.20;;;12.90;99.90;;;;;;4954105;28;20077;-77
2021/05/15 12:39:52;;;;;;;7.45;5.22;;;12.90;99.90;;;;;;4953507;28;20039;-78
2021/05/15 12:42:17;;;;;;;10.68;5.82;;;13.10;99.90;;;;;;4954077;28;20031;-80
2021/05/15 12:44:45;;;;;;;11.57;5.00;;;13.40;99.90;;;;;;4952681;29;20122;-79
2021/05/15 12:47:14;;;;;;;12.38;6.70;;;13.30;99.90;;;;;;4952931;29;20058;-80
2021/05/15 12:49:41;;;;;;;12.50;6.95;;;13.10;99.90;;;;;;4952754;28;20031;-80
2021/05/15 12:52:20;;;;;;;8.13;5.93;;;12.80;99.90;;;;;;4954096;28;20028;-80
2021/05/15 12:54:48;;;;;;;9.75;4.93;;;12.90;99.90;;;;;;4949184;29;20175;-80
2021/05/15 12:57:18;;;;;;;12.70;6.55;;;13.00;99.90;;;;;;4934791;29;20090;-80
2021/05/15 12:59:52;;;;;;;10.60;6.05;;;13.20;99.90;;;;;;4934997;29;20028;-79
2021/05/15 13:02:20;;;;;;;10.25;6.28;;;13.50;99.90;;;;;;4934659;29;20078;-79
2021/05/15 13:04:57;;;;;;;10.98;6.13;;;13.80;99.90;;;;;;4935497;29;20082;-79
2021/05/15 13:07:33;;;;;;;10.57;6.35;;;14.40;99.90;;;;;;4949470;29;20035;-80
2021/05/15 13:10:13;;;;;;;73.40;35.13;;;14.90;99.90;;;;;;4941884;29;20030;-81
2021/05/15 13:12:42;;;;;;;9.52;6.78;;;15.30;99.90;;;;;;4952662;29;20496;-81